| Date | Time | Temp. (oF) | Dew Point (oF) | Rel. Hum. (%) | Press. (in.) | Wind Dir. (deg.) | Wind Speed (mph) | Hourly Rainfall (i n.) |
|
|---|---|---|---|---|---|---|---|---|---|
| 1 | 06/25 | 24:00 | 66 | 52 | 61 | 30.21 | 130 | 1 | 0.00 |
| 2 | 06/24 | 23:00 | 67 | 51 | 57 | 30.21 | 130 | 0 | 0.00 |
| 3 | 06/24 | 22:00 | 69 | 50 | 51 | 30.20 | 130 | 0 | 0.00 |
| 4 | 06/24 | 21:00 | 72 | 49 | 46 | 30.16 | 130 | 0 | 0.00 |
| 5 | 06/24 | 20:00 | 76 | 50 | 41 | 30.14 | 130 | 2 | 0.00 |
| 6 | 06/24 | 19:00 | 78 | 49 | 37 | 30.13 | 130 | 4 | 0.00 |
| 7 | 06/24 | 18:00 | 80 | 47 | 32 | 30.15 | 130 | 4 | 0.00 |
| 8 | 06/24 | 17:00 | 80 | 48 | 34 | 30.16 | 280 | 10 | 0.00 |
| 9 | 06/24 | 16:00 | 81 | 49 | 34 | 30.18 | 230 | 11 | 0.00 |
| 10 | 06/24 | 15:00 | 83 | 49 | 32 | 30.16 | 170 | 7 | 0.00 |
| 11 | 06/24 | 14:00 | 85 | 54 | 36 | 30.16 | 50 | 4 | 0.00 |
| 12 | 06/24 | 13:00 | 85 | 54 | 36 | 30.17 | 180 | 4 | 0.00 |
| 13 | 06/24 | 12:00 | 83 | 53 | 37 | 30.18 | 110 | 4 | 0.00 |
| 14 | 06/24 | 11:00 | 80 | 53 | 41 | 30.19 | 150 | 4 | 0.00 |
| 15 | 06/24 | 10:00 | 71 | 54 | 57 | 30.20 | 150 | 7 | 0.00 |
| 16 | 06/24 | 09:00 | 65 | 54 | 70 | 30.21 | 130 | 0 | 0.00 |
| 17 | 06/24 | 08:00 | 59 | 53 | 83 | 30.22 | 140 | 0 | 0.00 |
| 18 | 06/24 | 07:00 | 56 | 51 | 84 | 30.27 | 140 | 0 | 0.00 |
| 19 | 06/24 | 06:00 | 57 | 51 | 81 | 30.25 | 140 | 0 | 0.00 |
| 20 | 06/24 | 05:00 | 58 | 51 | 78 | 30.27 | 140 | 0 | 0.00 |
| 21 | 06/24 | 04:00 | 59 | 51 | 75 | 30.27 | 140 | 0 | 0.00 |
| 22 | 06/24 | 03:00 | 61 | 51 | 72 | 30.27 | 140 | 0 | 0.00 |
| 23 | 06/24 | 02:00 | 63 | 53 | 70 | 30.28 | 140 | 1 | 0.00 |
| 24 | 06/24 | 01:00 | 63 | 53 | 71 | 30.28 | 140 | 0 | 0.00 |